Saint Hedwig, TX

14:41 CDT le 25 octobre 2014 (GMT -0500)
San Antonio International | Change Station
CLOSE
Current Station
Aéroport
Location: San Antonio,
Altitude: 794 ft
Stations météo à proximité

Alt. 794 ft 29.53 °N, 98.47 °W | Updated 50 minutes ago

Ciel dégagé
Ciel dégagé
86 ° F
Paraît 85 ° F
N
4
Vent Variable Vent de Variable

Aujourd'hui
Haut(e) -- | Bas -- ° F
--% Risque de précip.
Hier
Haut(e) -- | Bas -- ° F
Precip. -- pouce
7:40 AM 6:52 PM
Lune montante, 4% visible
Pression 30.09 pouce
Visibilité 10.0 Miles terrestres
Nuages Ciel dégagé
indice de chaleur 85 ° F
Point de rosée 57 ° F
Humidité 37%
Précipitations 0.00 pouce
Profondeur de la couche neigeuse Non disponible.
UV 7 sur 12
Pollen 6.10 sur 12
Ozone Moyen
PM2.5 Moyen
Flu Activity Local Activity
METAR KSAT 251851Z VRB03KT 10SM CLR 30/14 A3014 RMK AO2 SLP189 T03000139 $

More Conditions Fewer Conditions

Pression 30.09 pouce
Visibilité 10.0 Miles terrestres
Nuages Ciel dégagé
indice de chaleur 85 ° F
Point de rosée 57 ° F
Humidité 37%
Précipitations 0.00 pouce
Profondeur de la couche neigeuse Non disponible.
UV 7 sur 12
Pollen 6.10 sur 12
Ozone Moyen
PM2.5 Moyen
Flu Activity Local Activity
METAR KSAT 251851Z VRB03KT 10SM CLR 30/14 A3014 RMK AO2 SLP189 T03000139 $

More Conditions Fewer Conditions

10-Day Weather Forecast

Almanac

Astronomie

Oct. 25, 2014 Lever Coucher
Temps réel 07:40 CDT 18:52 CDT
Crépuscule civil 07:16 CDT 19:16 CDT
Crépuscule nautique 06:48 CDT 19:44 CDT
Crépuscule astronomique 06:20 CDT 20:12 CDT
Lune 09:15 CDT 20:23 CDT
Durée de lumière visible 12h 00m
Longueur du jour
11h 11m
Tomorrow will be 1m 37s shorter.
Lune montante, 4% of the Moon is Illuminated
Aujourd'hui
Lune montante
Oct 30
Premier quartier
Nov 6
Pleine lune
Nov 14
Dernier quartier
Nov 22
Nouveau

Extrêmes aujourd'hui

State Highs State Lows

Community

WunderPhotos

Upload Photos

1,764,972 Photos téléchargées !

Nearby

Qualité de l'air

  Qualité de l'air Indice de la qualité de l'air Polluant
Hier Insalubre pour les personnes sensibles
OZONE
Hier Moyen
PM2.5
Actuel Moyen
OZONE
Actuel Moyen
PM2.5
samedi Moyen
OZONE
samedi Bon
PM10
dimanche Moyen
OZONE
dimanche Bon
PM10
lundi Bon
OZONE
lundi Bon
PM10
mardi Bon
OZONE
mardi Bon
PM10

Épaisseur de neige

Station Depth Altitude
Pas de nouvelles chutes de neige

Activité sismique

Ville Distance Mag. Time & Date
No recent earthquake activity has been reported nearby.
Minimum magnitude displayed is 2.5.

Températures des eaux côtières

Lieu Température
Aucun rapport de station

Stations météo à proximité